Terminal Aerodrome Forecast
Issued by NWS Grand Forks, ND

Home | Current Version | Previous Version | Graphics & Text | Print | Product List | Glossary On
Versions: 1 2 3 4 5 6 7 8 9 10 11 12 13 14 15 16 17 18 19 20 21 22
000
FTUS43 KFGF 231100
TAFFAR
TAF
KFAR 231120Z 2312/2412 13018KT P6SM BKN100
      TEMPO 2312/2314 5SM -RA BR OVC040
     FM231400 13018G28KT 5SM -RA BR OVC040
     FM231800 13023G33KT P6SM OVC040
      TEMPO 2318/2321 -RA
     FM240000 13020KT P6SM OVC025=

USA.gov is the U.S. government's official web portal to all federal, state and local government web resources and services.